createdAt,value
2017-05-10T00:00:05.998Z,99.99
2017-05-10T00:10:06.009Z,99.99
2017-05-10T00:20:05.954Z,99.99
2017-05-10T00:30:05.969Z,99.99
2017-05-10T00:40:06.020Z,99.99
2017-05-10T00:50:05.941Z,99.99
2017-05-10T01:00:05.983Z,99.99
2017-05-10T01:10:06.961Z,99.99
2017-05-10T01:20:06.257Z,99.99
2017-05-10T01:30:05.956Z,99.99
2017-05-10T01:40:05.972Z,99.99
2017-05-10T01:50:06.045Z,99.99
2017-05-10T02:00:05.999Z,99.99
2017-05-10T02:10:05.939Z,99.99
2017-05-10T02:20:06.030Z,99.99
2017-05-10T02:30:05.922Z,99.99
2017-05-10T02:40:05.917Z,99.99
2017-05-10T02:50:05.918Z,99.99
2017-05-10T03:00:05.918Z,99.99
2017-05-10T03:10:05.926Z,99.99
2017-05-10T03:20:05.981Z,99.99
2017-05-10T03:30:05.953Z,99.99
2017-05-10T03:40:06.267Z,99.99
2017-05-10T03:50:05.895Z,99.99
2017-05-10T04:00:05.897Z,99.99
2017-05-10T04:10:06.001Z,99.99
2017-05-10T04:20:05.972Z,99.99
2017-05-10T04:30:05.925Z,99.99
2017-05-10T04:40:05.886Z,99.99
2017-05-10T04:50:05.957Z,99.99
2017-05-10T05:00:05.906Z,99.99
2017-05-10T05:10:05.885Z,99.99
2017-05-10T05:20:06.094Z,99.99
2017-05-10T05:30:05.996Z,99.99
2017-05-10T05:40:05.885Z,99.99
2017-05-10T05:50:06.222Z,99.99
2017-05-10T06:00:05.885Z,99.99
2017-05-10T06:10:05.870Z,99.99
2017-05-10T06:20:05.904Z,99.99
2017-05-10T06:30:05.870Z,92.7
2017-05-10T06:40:05.935Z,86.79
2017-05-10T06:50:05.981Z,70.92
2017-05-10T07:00:05.883Z,52.67
2017-05-10T07:10:05.891Z,45.78
2017-05-10T07:20:05.975Z,39.66
2017-05-10T07:30:05.877Z,34.64
2017-05-10T07:40:07.271Z,31.91
2017-05-10T07:50:05.947Z,31.18
2017-05-10T08:00:05.912Z,28.69
2017-05-10T08:10:05.914Z,29.28
2017-05-10T08:20:05.973Z,29.8
2017-05-10T08:30:05.902Z,30.91
2017-05-10T08:40:05.932Z,32.54
2017-05-10T08:50:05.920Z,34.71
2017-05-10T09:00:05.922Z,40.57
2017-05-10T09:10:05.953Z,46.11
2017-05-10T09:20:05.918Z,50.05
2017-05-10T09:30:05.911Z,50.39
2017-05-10T09:40:05.958Z,52.42
2017-05-10T09:50:05.915Z,54.89
2017-05-10T10:00:05.953Z,54.96
2017-05-10T10:10:05.933Z,51.75
2017-05-10T10:20:05.909Z,52.02
2017-05-10T10:30:05.928Z,50.08
2017-05-10T10:40:05.935Z,50.08
2017-05-10T10:50:05.929Z,50.08
2017-05-10T11:00:05.926Z,53.36
2017-05-10T11:10:05.931Z,56.98
2017-05-10T11:20:05.921Z,52.81
2017-05-10T11:30:06.492Z,54.05
2017-05-10T11:40:05.937Z,55.21
2017-05-10T11:50:05.966Z,55.21
2017-05-10T12:00:05.930Z,52.97
2017-05-10T12:10:05.931Z,54.44
2017-05-10T12:20:05.933Z,53.96
2017-05-10T12:30:05.924Z,53.99
2017-05-10T12:40:05.921Z,55.85
2017-05-10T12:50:05.931Z,54.6
2017-05-10T13:00:05.933Z,54.72
2017-05-10T13:10:05.941Z,56.81
2017-05-10T13:20:05.939Z,57.95
2017-05-10T13:30:05.953Z,56.9
2017-05-10T13:40:05.925Z,57.67
2017-05-10T13:50:05.926Z,54.03
2017-05-10T14:00:05.929Z,56.61
2017-05-10T14:10:05.964Z,57.38
2017-05-10T14:20:05.941Z,55.58
2017-05-10T14:30:05.963Z,55.56
2017-05-10T14:40:06.046Z,55.65
2017-05-10T14:50:05.938Z,56.32
2017-05-10T15:00:05.951Z,55.65
2017-05-10T15:10:05.932Z,54.91
2017-05-10T15:20:05.985Z,54.34
2017-05-10T15:30:05.955Z,54.08
2017-05-10T15:40:05.941Z,54.94
2017-05-10T15:50:05.946Z,53.89
2017-05-10T16:00:05.962Z,53.03
2017-05-10T16:10:05.916Z,53.89
2017-05-10T16:20:06.985Z,53.12
2017-05-10T16:30:05.973Z,53.6
2017-05-10T16:40:15.683Z,54.46
2017-05-10T16:50:05.940Z,54.72
2017-05-10T17:00:05.952Z,54.72
2017-05-10T17:10:05.946Z,56.81
2017-05-10T17:20:05.958Z,56.68
2017-05-10T17:30:05.934Z,56.97
2017-05-10T17:40:05.975Z,58.37
2017-05-10T17:50:05.953Z,58.73
2017-05-10T18:00:05.974Z,60.26
2017-05-10T18:10:05.949Z,61.88
2017-05-10T18:20:05.981Z,63.96
2017-05-10T18:30:06.307Z,64.82
2017-05-10T18:40:05.952Z,67.27
2017-05-10T18:50:05.949Z,68.48
2017-05-10T19:00:06.080Z,71.59
2017-05-10T19:10:05.955Z,72.42
2017-05-10T19:20:05.948Z,74.13
2017-05-10T19:30:06.057Z,77.53
2017-05-10T19:40:05.935Z,79.59
2017-05-10T19:50:05.970Z,84.36
2017-05-10T20:00:05.944Z,82.54
2017-05-10T20:10:05.942Z,83.5
2017-05-10T20:20:05.935Z,84.64
2017-05-10T20:30:06.009Z,85.78
2017-05-10T20:40:05.925Z,89.65
2017-05-10T20:50:05.951Z,91.7
2017-05-10T21:00:06.004Z,94.37
2017-05-10T21:10:05.958Z,96.41
2017-05-10T21:20:06.009Z,98.5
2017-05-10T21:30:07.668Z,99.99
2017-05-10T21:40:05.933Z,99.99
2017-05-10T21:50:06.076Z,99.99
2017-05-10T22:00:05.935Z,99.99
2017-05-10T22:10:06.046Z,99.99
2017-05-10T22:20:05.941Z,99.99
2017-05-10T22:30:06.108Z,99.99
2017-05-10T22:40:05.936Z,99.99
2017-05-10T22:50:05.992Z,99.99
2017-05-10T23:00:05.913Z,99.99
2017-05-10T23:10:05.922Z,99.99
2017-05-10T23:20:05.952Z,99.99
2017-05-10T23:30:05.927Z,99.99
2017-05-10T23:40:05.901Z,99.99
2017-05-10T23:50:05.946Z,99.99
